Time;durP1;ratioP1;P1;durP2;ratioP2;P2;SDS_P1;SDS_P2;PMS_P1;PMS_P2;Temp;Humidity;BMP_temperature;BMP_pressure;BME280_temperature;BME280_humidity;BME280_pressure;Samples;Min_cycle;Max_cycle;Signal;HPM_P1;HPM_P2
2023/10/25 00:01:32;;;;;;;10.13;1.90;;;32.30;33.80;;;;;;4941856;28;20036;-70
2023/10/25 00:04:00;;;;;;;9.20;1.48;;;31.90;34.20;;;;;;4946965;28;20074;-71
2023/10/25 00:06:27;;;;;;;7.43;1.63;;;32.40;33.70;;;;;;4943098;28;20042;-68
2023/10/25 00:08:54;;;;;;;9.65;1.73;;;32.50;33.90;;;;;;4949203;28;20492;-71
2023/10/25 00:11:22;;;;;;;7.95;1.33;;;32.60;34.10;;;;;;4951505;28;20034;-71
2023/10/25 00:13:49;;;;;;;9.25;2.00;;;32.80;33.90;;;;;;4949710;28;21188;-70
2023/10/25 00:16:17;;;;;;;8.77;1.83;;;32.90;33.70;;;;;;4944351;28;20551;-70
2023/10/25 00:18:44;;;;;;;7.78;1.55;;;32.80;31.80;;;;;;4949124;28;20027;-70
2023/10/25 00:21:11;;;;;;;9.80;1.73;;;32.70;32.80;;;;;;4947607;28;20035;-69
2023/10/25 00:23:39;;;;;;;11.10;1.80;;;32.90;33.20;;;;;;4949888;28;20062;-70
2023/10/25 00:26:06;;;;;;;15.43;2.13;;;32.90;32.80;;;;;;4942170;28;20044;-68
2023/10/25 00:28:33;;;;;;;19.00;3.25;;;32.80;34.00;;;;;;4946485;28;20027;-69
2023/10/25 00:31:01;;;;;;;13.45;2.47;;;32.80;34.70;;;;;;4939089;28;20028;-68
2023/10/25 00:33:28;;;;;;;21.60;3.40;;;32.70;35.30;;;;;;4948640;28;20039;-69
2023/10/25 00:35:55;;;;;;;24.83;4.40;;;32.90;37.20;;;;;;4944456;28;20050;-69
2023/10/25 00:38:23;;;;;;;16.23;4.25;;;32.30;40.90;;;;;;4948828;28;20480;-68
2023/10/25 00:40:50;;;;;;;24.25;3.47;;;32.10;41.70;;;;;;4939362;28;20556;-68
2023/10/25 00:43:22;;;;;;;26.35;4.95;;;31.70;40.90;;;;;;4949020;28;20122;-67
2023/10/25 00:46:03;;;;;;;24.50;5.18;;;31.60;42.50;;;;;;4948058;28;20141;-68
2023/10/25 00:48:31;;;;;;;17.65;3.95;;;31.90;42.60;;;;;;4952961;28;20035;-69
2023/10/25 00:51:00;;;;;;;20.85;4.72;;;31.80;41.50;;;;;;4943256;28;20031;-68
2023/10/25 00:53:29;;;;;;;22.90;4.70;;;32.00;42.40;;;;;;4950877;28;20035;-69
2023/10/25 00:55:58;;;;;;;27.23;4.82;;;31.80;42.20;;;;;;4944223;28;20042;-68
2023/10/25 00:58:26;;;;;;;20.73;4.50;;;31.90;43.50;;;;;;4948894;28;20653;-69
2023/10/25 01:00:55;;;;;;;22.40;4.30;;;31.90;42.90;;;;;;4944970;28;20090;-69
2023/10/25 01:03:23;;;;;;;20.50;4.47;;;32.00;42.30;;;;;;4945734;28;20027;-69
2023/10/25 01:05:50;;;;;;;18.30;3.90;;;32.20;42.00;;;;;;4946989;28;20054;-68
2023/10/25 01:08:22;;;;;;;20.48;4.40;;;32.30;41.20;;;;;;4943530;28;20121;-69
2023/10/25 01:10:54;;;;;;;27.13;4.65;;;32.20;42.10;;;;;;4947017;28;20054;-69
2023/10/25 01:13:22;;;;;;;36.00;6.30;;;32.10;41.80;;;;;;4945944;28;20027;-68
2023/10/25 01:15:49;;;;;;;28.88;5.75;;;32.20;43.60;;;;;;4951001;28;20102;-69
2023/10/25 01:18:17;;;;;;;31.15;5.35;;;30.80;44.90;;;;;;4941684;28;21650;-74
2023/10/25 01:20:45;;;;;;;30.90;6.57;;;30.40;45.80;;;;;;4940970;28;20114;-69
2023/10/25 01:23:13;;;;;;;36.45;7.07;;;30.60;46.40;;;;;;4943993;28;20027;-69
2023/10/25 01:25:43;;;;;;;31.55;5.25;;;30.70;46.10;;;;;;4944054;28;20032;-70
2023/10/25 01:28:11;;;;;;;23.05;5.72;;;30.90;45.10;;;;;;4948574;28;20031;-70
2023/10/25 01:30:40;;;;;;;35.92;5.85;;;31.00;45.90;;;;;;4945805;28;20039;-69
2023/10/25 01:33:08;;;;;;;29.42;5.93;;;31.00;45.50;;;;;;4947130;28;20105;-69
2023/10/25 01:35:36;;;;;;;33.70;5.72;;;31.30;45.60;;;;;;4947907;28;20115;-69
2023/10/25 01:38:03;;;;;;;32.22;6.38;;;31.70;46.30;;;;;;4949946;28;20482;-69
2023/10/25 01:40:31;;;;;;;37.50;5.97;;;30.60;47.10;;;;;;4941759;28;20369;-70
2023/10/25 01:42:58;;;;;;;38.38;6.18;;;29.80;48.50;;;;;;4941873;28;20027;-69
2023/10/25 01:45:27;;;;;;;34.03;5.97;;;30.00;48.10;;;;;;4945717;28;20038;-69
2023/10/25 01:47:54;;;;;;;25.25;6.38;;;30.60;48.00;;;;;;4941288;28;20175;-70
2023/10/25 01:50:22;;;;;;;28.80;5.80;;;31.30;47.00;;;;;;4938821;28;20029;-69
2023/10/25 01:52:49;;;;;;;44.40;7.75;;;31.40;45.70;;;;;;4934680;28;20031;-70
2023/10/25 01:55:17;;;;;;;33.13;6.32;;;31.50;47.40;;;;;;4940322;28;20047;-69
2023/10/25 01:57:45;;;;;;;31.25;5.65;;;30.90;48.20;;;;;;4944726;28;20454;-69
2023/10/25 02:00:13;;;;;;;32.40;6.45;;;30.30;48.80;;;;;;4950188;28;20476;-69
2023/10/25 02:02:40;;;;;;;25.50;6.25;;;30.20;49.00;;;;;;4953119;28;20035;-69
2023/10/25 02:05:08;;;;;;;32.30;6.60;;;30.30;48.70;;;;;;4950037;28;20039;-70
2023/10/25 02:07:36;;;;;;;33.15;6.63;;;29.80;49.10;;;;;;4948060;28;20117;-71
2023/10/25 02:10:04;;;;;;;29.20;6.30;;;30.10;48.40;;;;;;4950341;28;20050;-70
2023/10/25 02:12:31;;;;;;;23.05;5.32;;;30.80;47.70;;;;;;4949894;28;20027;-70
2023/10/25 02:14:59;;;;;;;28.42;4.80;;;31.30;46.70;;;;;;4932208;28;20485;-70
2023/10/25 02:17:26;;;;;;;29.60;5.80;;;31.30;48.50;;;;;;4945886;28;20046;-70
2023/10/25 02:19:53;;;;;;;33.42;5.78;;;31.30;47.70;;;;;;4949192;28;20493;-68
2023/10/25 02:22:20;;;;;;;32.95;5.90;;;31.50;47.50;;;;;;4949805;28;20034;-68
2023/10/25 02:24:49;;;;;;;26.42;5.65;;;31.50;47.90;;;;;;4949159;28;20046;-69
2023/10/25 02:27:17;;;;;;;26.30;5.18;;;31.40;47.20;;;;;;4944818;28;20039;-68
2023/10/25 02:29:44;;;;;;;26.08;5.75;;;31.50;46.70;;;;;;4948434;28;20197;-67
2023/10/25 02:32:11;;;;;;;26.67;5.78;;;31.60;46.50;;;;;;4951366;28;20046;-67
2023/10/25 02:34:39;;;;;;;23.55;5.38;;;31.80;45.80;;;;;;4950236;28;20381;-68
2023/10/25 02:37:06;;;;;;;33.92;5.85;;;31.90;45.40;;;;;;4942195;28;20477;-69
2023/10/25 02:39:34;;;;;;;26.80;5.65;;;31.80;45.10;;;;;;4950322;28;20027;-68
2023/10/25 02:42:01;;;;;;;29.02;5.07;;;31.80;45.70;;;;;;4950504;28;20034;-70
2023/10/25 02:44:28;;;;;;;26.08;5.45;;;32.00;46.70;;;;;;4944105;28;20058;-73
2023/10/25 02:46:58;;;;;;;23.02;5.35;;;32.10;45.80;;;;;;4939590;28;20031;-69
2023/10/25 02:49:26;;;;;;;28.17;5.55;;;32.20;44.90;;;;;;4940300;28;20027;-71
2023/10/25 02:51:53;;;;;;;24.85;4.72;;;31.90;45.10;;;;;;4937328;28;20031;-69
2023/10/25 02:54:21;;;;;;;22.27;5.15;;;31.90;45.60;;;;;;4944118;28;20022;-69
2023/10/25 02:56:48;;;;;;;26.08;5.88;;;31.90;44.50;;;;;;4946764;28;20031;-69
2023/10/25 02:59:15;;;;;;;25.50;5.63;;;32.00;44.30;;;;;;4940677;28;20184;-69
2023/10/25 03:01:43;;;;;;;33.95;6.00;;;32.00;45.80;;;;;;4945611;28;20470;-69
2023/10/25 03:04:10;;;;;;;29.45;5.90;;;31.90;45.80;;;;;;4940556;28;20396;-69
2023/10/25 03:06:38;;;;;;;33.58;6.25;;;31.80;46.00;;;;;;4943422;28;20023;-70
2023/10/25 03:09:05;;;;;;;31.27;5.78;;;31.70;45.50;;;;;;4944138;28;20370;-69
2023/10/25 03:11:32;;;;;;;30.13;5.93;;;31.80;45.60;;;;;;4943578;28;20035;-69
2023/10/25 03:14:00;;;;;;;26.10;5.43;;;32.00;45.50;;;;;;4946246;28;20083;-69
2023/10/25 03:16:27;;;;;;;26.55;5.72;;;31.90;45.50;;;;;;4934294;28;20064;-69
2023/10/25 03:18:54;;;;;;;23.60;4.85;;;31.80;45.20;;;;;;4949783;28;20130;-69
2023/10/25 03:21:22;;;;;;;27.98;5.78;;;31.80;46.10;;;;;;4949634;28;20407;-69
2023/10/25 03:23:50;;;;;;;24.33;6.13;;;31.10;45.60;;;;;;4957214;28;20031;-69
2023/10/25 03:26:17;;;;;;;28.77;6.00;;;31.00;47.30;;;;;;4949575;28;20540;-69
2023/10/25 03:28:44;;;;;;;38.88;7.03;;;31.10;47.00;;;;;;4950820;28;20142;-68
2023/10/25 03:31:12;;;;;;;32.75;5.47;;;31.30;47.60;;;;;;4953509;28;20033;-69
2023/10/25 03:33:40;;;;;;;29.08;5.35;;;31.50;47.70;;;;;;4956337;28;20124;-68
2023/10/25 03:36:07;;;;;;;28.60;6.40;;;31.30;46.90;;;;;;4949575;28;20041;-69
2023/10/25 03:38:35;;;;;;;30.73;6.15;;;31.10;48.20;;;;;;4949464;28;20477;-68
2023/10/25 03:41:07;;;;;;;27.88;5.35;;;30.80;49.10;;;;;;4950120;28;20114;-68
2023/10/25 03:43:36;;;;;;;28.83;6.53;;;30.40;49.40;;;;;;4947374;28;20028;-68
2023/10/25 03:46:05;;;;;;;27.88;5.75;;;30.40;50.40;;;;;;4950631;28;20076;-69
2023/10/25 03:48:33;;;;;;;32.40;6.07;;;30.50;48.70;;;;;;4949733;28;20111;-69
2023/10/25 03:51:04;;;;;;;28.80;6.25;;;30.50;48.30;;;;;;4950433;28;20590;-68
2023/10/25 03:53:34;;;;;;;34.38;5.78;;;30.60;48.40;;;;;;4939495;28;20031;-69
2023/10/25 03:56:02;;;;;;;33.85;6.45;;;30.60;49.10;;;;;;4947259;28;20951;-68
2023/10/25 03:58:30;;;;;;;34.22;6.28;;;30.60;49.40;;;;;;4942137;28;20595;-68
2023/10/25 04:01:08;;;;;;;27.20;6.13;;;30.60;50.20;;;;;;4947041;28;20039;-69
2023/10/25 04:03:36;;;;;;;31.52;6.57;;;29.90;49.90;;;;;;4954511;28;20059;-68
2023/10/25 04:06:08;;;;;;;30.58;6.03;;;29.40;51.60;;;;;;4952644;28;20071;-69
2023/10/25 04:08:36;;;;;;;39.70;6.13;;;29.30;51.10;;;;;;4942484;28;20027;-69
2023/10/25 04:11:03;;;;;;;28.65;5.93;;;28.70;52.60;;;;;;4944536;28;20467;-69
2023/10/25 04:13:32;;;;;;;30.52;5.97;;;28.50;53.40;;;;;;4947453;28;20043;-68
2023/10/25 04:16:05;;;;;;;33.65;6.22;;;28.30;54.00;;;;;;4944228;28;20034;-68
2023/10/25 04:18:33;;;;;;;30.67;6.40;;;28.30;54.30;;;;;;4947610;28;20035;-69
2023/10/25 04:21:02;;;;;;;28.40;6.13;;;28.40;54.10;;;;;;4951182;28;20126;-68
2023/10/25 04:23:31;;;;;;;30.85;5.35;;;28.50;54.20;;;;;;4947753;28;20390;-68
2023/10/25 04:26:07;;;;;;;31.75;6.80;;;28.50;54.30;;;;;;4946883;28;20571;-69
2023/10/25 04:28:36;;;;;;;36.83;6.10;;;28.50;54.40;;;;;;4949253;28;20126;-68
2023/10/25 04:31:03;;;;;;;40.35;7.05;;;28.30;54.30;;;;;;4951404;28;20039;-69
2023/10/25 04:33:31;;;;;;;34.38;5.40;;;28.10;54.90;;;;;;4949179;28;20051;-67
2023/10/25 04:35:59;;;;;;;24.10;5.30;;;27.60;56.10;;;;;;4946955;28;20035;-68
2023/10/25 04:38:26;;;;;;;29.80;7.38;;;27.40;56.00;;;;;;4951082;28;20082;-67
2023/10/25 04:40:54;;;;;;;23.05;5.10;;;27.20;56.70;;;;;;4932695;28;20027;-68
2023/10/25 04:43:21;;;;;;;30.80;5.50;;;27.50;56.70;;;;;;4947983;28;20079;-68
2023/10/25 04:45:51;;;;;;;30.02;6.05;;;27.60;56.30;;;;;;4950089;28;20040;-68
2023/10/25 04:48:19;;;;;;;32.78;6.60;;;27.00;57.00;;;;;;4949224;28;20027;-68
2023/10/25 04:50:46;;;;;;;29.30;5.97;;;26.90;57.60;;;;;;4942100;28;20027;-68
2023/10/25 04:53:14;;;;;;;33.72;5.53;;;26.80;57.90;;;;;;4945946;28;20712;-68
2023/10/25 04:55:46;;;;;;;32.95;5.57;;;26.80;58.20;;;;;;4949540;28;20060;-67
2023/10/25 04:58:14;;;;;;;38.00;6.43;;;26.60;59.10;;;;;;4933835;28;20071;-68
2023/10/25 05:00:41;;;;;;;29.58;5.22;;;26.70;59.10;;;;;;4946719;28;20035;-67
2023/10/25 05:03:11;;;;;;;32.90;5.60;;;27.10;58.70;;;;;;4947741;28;20035;-68
2023/10/25 05:05:39;;;;;;;31.75;5.78;;;27.60;57.60;;;;;;4949879;28;20497;-68
2023/10/25 05:08:10;;;;;;;27.77;5.55;;;27.50;57.50;;;;;;4947083;28;20054;-68
2023/10/25 05:10:38;;;;;;;40.53;5.93;;;27.20;57.90;;;;;;4949821;28;20027;-68
2023/10/25 05:13:05;;;;;;;27.58;5.35;;;27.00;58.30;;;;;;4954572;28;20121;-68
2023/10/25 05:15:35;;;;;;;30.83;6.85;;;27.20;58.40;;;;;;4945052;28;20110;-68
2023/10/25 05:18:03;;;;;;;32.00;4.90;;;27.10;58.30;;;;;;4946566;28;20062;-70
2023/10/25 05:20:31;;;;;;;31.48;5.40;;;26.90;58.70;;;;;;4943294;28;20038;-70
2023/10/25 05:23:01;;;;;;;35.15;6.72;;;27.00;58.90;;;;;;4955445;28;20038;-69
2023/10/25 05:25:29;;;;;;;26.70;5.90;;;27.10;58.90;;;;;;4944717;28;20515;-67
2023/10/25 05:27:56;;;;;;;38.13;5.88;;;27.20;58.90;;;;;;4949392;28;20038;-67
2023/10/25 05:30:24;;;;;;;30.00;6.13;;;27.20;59.00;;;;;;4945424;28;20078;-67
2023/10/25 05:32:59;;;;;;;24.42;5.35;;;27.20;58.20;;;;;;4954091;28;20135;-67
2023/10/25 05:35:27;;;;;;;30.38;5.68;;;27.00;58.60;;;;;;4948168;28;20156;-67
2023/10/25 05:37:54;;;;;;;32.13;5.28;;;27.20;58.70;;;;;;4951111;28;20053;-67
2023/10/25 05:40:22;;;;;;;33.25;6.00;;;27.10;58.10;;;;;;4943176;28;20110;-67
2023/10/25 05:42:50;;;;;;;30.20;5.53;;;27.30;58.10;;;;;;4944174;28;20031;-67
2023/10/25 05:45:17;;;;;;;33.38;6.10;;;27.10;58.40;;;;;;4949082;28;20054;-67
2023/10/25 05:47:45;;;;;;;28.05;5.25;;;27.00;58.20;;;;;;4951369;28;20074;-68
2023/10/25 05:50:13;;;;;;;36.75;5.88;;;26.80;59.10;;;;;;4945400;28;20059;-68
2023/10/25 05:52:45;;;;;;;42.13;6.95;;;26.70;58.80;;;;;;4946202;28;20029;-69
2023/10/25 05:55:16;;;;;;;29.52;6.35;;;26.50;59.70;;;;;;4952434;28;20027;-69
2023/10/25 05:57:45;;;;;;;32.83;6.57;;;26.20;60.50;;;;;;4948300;28;20125;-68
2023/10/25 06:00:13;;;;;;;31.63;5.35;;;26.20;60.30;;;;;;4949145;28;20035;-68
2023/10/25 06:02:44;;;;;;;24.35;5.35;;;26.20;60.50;;;;;;4945910;28;20488;-68
2023/10/25 06:05:13;;;;;;;24.98;5.10;;;26.00;60.70;;;;;;4947785;28;20043;-69
2023/10/25 06:07:41;;;;;;;28.08;5.55;;;25.50;61.90;;;;;;4946509;28;20058;-69
2023/10/25 06:10:09;;;;;;;28.95;5.30;;;25.40;62.70;;;;;;4945178;28;20519;-69
2023/10/25 06:12:37;;;;;;;34.08;6.00;;;25.40;63.20;;;;;;4944495;28;20015;-69
2023/10/25 06:15:05;;;;;;;32.97;5.93;;;25.40;63.40;;;;;;4944463;28;20035;-69
2023/10/25 06:17:33;;;;;;;30.40;5.80;;;25.40;63.10;;;;;;4949193;28;20035;-69
2023/10/25 06:20:00;;;;;;;30.80;5.65;;;25.20;63.30;;;;;;4945809;28;20032;-68
2023/10/25 06:22:28;;;;;;;29.60;5.88;;;25.10;63.40;;;;;;4950748;28;20039;-69
2023/10/25 06:24:55;;;;;;;32.67;6.60;;;25.00;64.00;;;;;;4947347;28;20039;-68
2023/10/25 06:27:23;;;;;;;33.10;6.85;;;25.10;64.20;;;;;;4942606;28;20058;-68
2023/10/25 06:29:50;;;;;;;32.30;5.97;;;25.20;64.00;;;;;;4949737;28;20038;-69
2023/10/25 06:32:18;;;;;;;30.85;6.00;;;25.10;64.20;;;;;;4950563;28;20035;-69
2023/10/25 06:34:45;;;;;;;47.17;6.72;;;24.90;64.80;;;;;;4950438;28;20481;-69
2023/10/25 06:37:13;;;;;;;38.90;6.35;;;25.00;64.90;;;;;;4956087;28;20027;-69
2023/10/25 06:39:41;;;;;;;32.67;6.88;;;24.90;65.40;;;;;;4953792;28;20043;-69
2023/10/25 06:42:10;;;;;;;44.85;6.75;;;24.80;65.20;;;;;;4949402;28;20476;-67
2023/10/25 06:44:37;;;;;;;31.63;5.60;;;24.60;65.70;;;;;;4951326;28;20042;-67
2023/10/25 06:47:06;;;;;;;31.83;6.38;;;24.40;66.30;;;;;;4934353;29;20042;-68
2023/10/25 06:49:33;;;;;;;37.53;7.13;;;24.20;67.20;;;;;;4949452;28;20039;-68
2023/10/25 06:52:01;;;;;;;33.58;5.60;;;24.20;67.30;;;;;;4950465;28;20030;-68
2023/10/25 06:54:29;;;;;;;33.78;6.30;;;23.90;67.90;;;;;;4950915;28;20031;-68
2023/10/25 06:56:57;;;;;;;31.77;6.45;;;23.90;68.40;;;;;;4951285;28;20039;-68
2023/10/25 06:59:25;;;;;;;32.88;6.15;;;23.80;68.70;;;;;;4955188;28;20023;-69
2023/10/25 07:02:24;;;;;;;34.25;5.43;;;23.70;69.30;;;;;;4953411;28;20478;-69
2023/10/25 07:04:57;;;;;;;44.13;6.78;;;23.50;69.90;;;;;;4946705;28;20125;-67
2023/10/25 07:07:29;;;;;;;39.47;6.07;;;23.50;69.90;;;;;;4953051;28;20035;-67
2023/10/25 07:09:59;;;;;;;31.27;6.07;;;23.40;70.40;;;;;;4947491;28;22571;-68
2023/10/25 07:12:26;;;;;;;31.83;5.55;;;23.40;70.90;;;;;;4950692;28;20579;-68
2023/10/25 07:14:54;;;;;;;35.72;6.07;;;23.30;71.80;;;;;;4950401;28;20082;-68
2023/10/25 07:17:21;;;;;;;41.58;6.40;;;23.30;71.50;;;;;;4947501;28;20113;-67
2023/10/25 07:19:48;;;;;;;29.33;5.53;;;23.30;71.50;;;;;;4950007;28;20031;-67
2023/10/25 07:22:15;;;;;;;31.42;5.90;;;23.10;72.60;;;;;;4945031;28;20053;-68
2023/10/25 07:24:43;;;;;;;34.95;6.28;;;23.00;73.00;;;;;;4951304;28;20046;-67
2023/10/25 07:27:10;;;;;;;38.92;6.43;;;22.80;73.40;;;;;;4945511;28;20090;-68
2023/10/25 07:29:38;;;;;;;32.17;6.47;;;22.80;73.70;;;;;;4947301;28;20043;-68
2023/10/25 07:32:06;;;;;;;26.40;5.90;;;22.80;73.80;;;;;;4936601;28;20031;-69
2023/10/25 07:34:34;;;;;;;24.35;5.18;;;22.70;73.50;;;;;;4950524;28;20425;-67
2023/10/25 07:37:02;;;;;;;36.72;5.72;;;22.50;73.70;;;;;;4945000;28;20174;-67
2023/10/25 07:39:29;;;;;;;36.70;5.70;;;22.30;74.60;;;;;;4951384;28;20118;-66
2023/10/25 07:41:56;;;;;;;34.42;5.53;;;22.10;75.40;;;;;;4945361;28;20404;-68
2023/10/25 07:44:24;;;;;;;32.75;5.63;;;21.90;75.80;;;;;;4958434;28;20409;-67
2023/10/25 07:46:51;;;;;;;34.97;5.35;;;21.70;76.40;;;;;;4957424;28;20035;-67
2023/10/25 07:49:18;;;;;;;36.78;5.80;;;21.70;76.70;;;;;;4951848;28;20031;-67
2023/10/25 07:51:46;;;;;;;29.50;6.28;;;21.60;77.10;;;;;;4948575;28;20393;-67
2023/10/25 07:54:13;;;;;;;41.00;6.07;;;21.50;77.70;;;;;;4949276;28;20040;-67
2023/10/25 07:56:40;;;;;;;31.58;6.18;;;21.50;77.80;;;;;;4951378;28;20024;-67
2023/10/25 07:59:09;;;;;;;38.05;6.90;;;21.50;77.80;;;;;;4933414;29;20031;-69
2023/10/25 08:01:38;;;;;;;37.30;5.68;;;21.40;78.00;;;;;;4951220;28;20034;-68
2023/10/25 08:04:08;;;;;;;35.65;6.35;;;21.30;78.20;;;;;;4952911;28;20415;-67
2023/10/25 08:06:36;;;;;;;32.92;6.07;;;21.30;78.40;;;;;;4947965;28;20041;-67
2023/10/25 08:09:03;;;;;;;32.28;6.07;;;21.20;78.90;;;;;;4948684;28;20369;-67
2023/10/25 08:11:34;;;;;;;23.05;5.15;;;21.20;78.90;;;;;;4944580;28;20041;-67
2023/10/25 08:14:02;;;;;;;43.33;6.35;;;21.30;78.70;;;;;;4947944;28;20037;-67
2023/10/25 08:16:30;;;;;;;31.77;5.57;;;21.30;78.50;;;;;;4949803;28;20166;-67
2023/10/25 08:18:57;;;;;;;37.10;5.85;;;21.30;78.10;;;;;;4948629;28;20028;-67
2023/10/25 08:21:25;;;;;;;30.45;5.25;;;21.20;78.80;;;;;;4945462;28;20374;-67
2023/10/25 08:23:52;;;;;;;33.80;6.15;;;21.20;79.00;;;;;;4949194;28;20038;-67
2023/10/25 08:26:26;;;;;;;29.90;5.97;;;21.10;79.10;;;;;;4948233;28;20050;-67
2023/10/25 08:28:54;;;;;;;30.23;4.82;;;21.00;79.40;;;;;;4944612;28;20065;-67
2023/10/25 08:31:21;;;;;;;33.10;5.53;;;21.00;79.70;;;;;;4946680;28;20027;-67
2023/10/25 08:33:48;;;;;;;33.55;6.03;;;21.00;79.90;;;;;;4950875;28;20043;-67
2023/10/25 08:36:16;;;;;;;43.88;6.22;;;21.00;80.20;;;;;;4950591;28;20381;-67
2023/10/25 08:38:43;;;;;;;27.70;5.22;;;20.80;80.90;;;;;;4951952;28;20129;-67
2023/10/25 08:41:11;;;;;;;36.80;6.53;;;20.80;81.00;;;;;;4952475;28;20687;-67
2023/10/25 08:43:44;;;;;;;33.80;5.80;;;20.90;81.30;;;;;;4954727;28;20027;-67
2023/10/25 08:46:11;;;;;;;28.77;4.93;;;20.80;81.60;;;;;;4951498;28;20039;-67
2023/10/25 08:48:40;;;;;;;33.72;5.18;;;20.80;81.90;;;;;;4950586;28;20031;-67
2023/10/25 08:51:08;;;;;;;35.60;5.68;;;20.90;81.50;;;;;;4935503;28;20098;-67
2023/10/25 08:53:36;;;;;;;30.63;5.90;;;21.00;81.40;;;;;;4951522;28;20031;-67
2023/10/25 08:56:04;;;;;;;36.22;5.55;;;20.80;81.70;;;;;;4943628;28;20110;-67
2023/10/25 08:58:31;;;;;;;42.15;6.72;;;20.70;82.40;;;;;;4950022;28;20100;-67
2023/10/25 09:00:59;;;;;;;39.80;5.85;;;20.60;82.90;;;;;;4956138;28;20086;-67
2023/10/25 09:03:44;;;;;;;42.75;6.25;;;20.70;82.80;;;;;;4950472;28;20024;-65
2023/10/25 09:06:22;;;;;;;42.00;5.93;;;20.70;82.90;;;;;;4950595;28;20054;-67
2023/10/25 09:09:02;;;;;;;32.90;5.03;;;20.60;83.00;;;;;;4949367;28;20026;-68
2023/10/25 09:11:41;;;;;;;34.10;5.22;;;20.70;82.90;;;;;;4930687;28;20031;-66
2023/10/25 09:14:10;;;;;;;31.95;6.00;;;20.60;82.90;;;;;;4949228;28;20031;-68
2023/10/25 09:16:43;;;;;;;34.97;4.93;;;20.60;82.80;;;;;;4945046;28;20037;-68
2023/10/25 09:19:11;;;;;;;34.60;5.90;;;20.60;83.10;;;;;;4947214;28;20026;-68
2023/10/25 09:21:39;;;;;;;42.20;5.95;;;20.50;83.50;;;;;;4945197;28;20039;-69
2023/10/25 09:24:09;;;;;;;35.63;6.13;;;20.40;83.90;;;;;;4954529;28;20027;-68
2023/10/25 09:26:41;;;;;;;29.55;6.03;;;20.50;83.80;;;;;;4948606;28;20468;-67
2023/10/25 09:29:13;;;;;;;29.77;5.10;;;20.40;84.20;;;;;;4946650;28;20035;-68
2023/10/25 09:31:41;;;;;;;35.28;5.72;;;20.40;84.20;;;;;;4929958;28;20365;-71
2023/10/25 09:34:09;;;;;;;30.95;4.72;;;20.40;84.10;;;;;;4945456;28;20051;-72
2023/10/25 09:36:38;;;;;;;29.63;4.90;;;20.30;84.10;;;;;;4948369;28;20484;-68
2023/10/25 09:39:05;;;;;;;24.80;4.78;;;20.10;84.40;;;;;;4948379;28;20031;-67
2023/10/25 09:41:40;;;;;;;36.03;6.35;;;20.00;84.40;;;;;;4949305;28;20158;-67
2023/10/25 09:44:19;;;;;;;29.20;5.15;;;20.00;84.80;;;;;;4950495;28;20074;-67
2023/10/25 09:46:48;;;;;;;43.58;6.18;;;20.00;85.10;;;;;;4949494;28;20046;-66
2023/10/25 09:49:18;;;;;;;36.90;4.50;;;20.00;85.20;;;;;;4951921;28;20038;-67
2023/10/25 09:52:05;;;;;;;26.88;4.85;;;19.90;85.20;;;;;;4946405;28;20031;-69
2023/10/25 09:54:37;;;;;;;33.35;4.13;;;19.90;85.50;;;;;;4954033;28;20066;-67
2023/10/25 09:57:05;;;;;;;24.98;4.20;;;19.90;85.60;;;;;;4949271;28;20039;-66
2023/10/25 09:59:34;;;;;;;33.58;6.15;;;19.90;85.50;;;;;;4932541;28;20421;-68
2023/10/25 10:02:04;;;;;;;33.10;7.00;;;19.90;85.20;;;;;;4951047;28;20733;-67
2023/10/25 10:04:39;;;;;;;32.83;5.05;;;20.00;85.00;;;;;;4936834;28;20039;-68
2023/10/25 10:07:14;;;;;;;35.70;5.85;;;20.10;84.60;;;;;;4950467;28;20077;-68
2023/10/25 10:09:47;;;;;;;34.15;5.05;;;20.00;84.90;;;;;;4946563;28;20031;-68
2023/10/25 10:12:15;;;;;;;29.45;5.88;;;20.00;85.00;;;;;;4940890;28;22411;-68
2023/10/25 10:14:42;;;;;;;36.20;5.35;;;19.90;85.30;;;;;;4948820;28;20082;-67
2023/10/25 10:17:16;;;;;;;32.25;5.35;;;20.00;85.20;;;;;;4951048;28;20093;-67
2023/10/25 10:19:51;;;;;;;35.60;5.72;;;19.90;85.60;;;;;;4933578;28;20047;-67
2023/10/25 10:22:19;;;;;;;29.55;4.90;;;19.90;85.00;;;;;;4944277;28;20073;-66
2023/10/25 10:24:57;;;;;;;27.70;4.88;;;19.80;84.80;;;;;;4948489;28;20034;-67
2023/10/25 10:27:43;;;;;;;38.75;6.22;;;19.70;85.30;;;;;;4947487;28;20114;-68
2023/10/25 10:30:38;;;;;;;29.30;4.28;;;19.60;85.70;;;;;;4945916;28;20094;-67
2023/10/25 10:33:10;;;;;;;32.17;4.88;;;19.60;85.80;;;;;;4952299;28;20508;-68
2023/10/25 10:35:48;;;;;;;31.90;5.30;;;19.60;85.50;;;;;;4951308;28;20057;-67
2023/10/25 10:38:14;;;;;;;;;;;19.60;85.60;;;;;;4950792;28;20039;-67
2023/10/25 10:40:42;;;;;;;30.58;4.65;;;19.70;85.40;;;;;;4949199;28;19915;-69
2023/10/25 10:43:10;;;;;;;30.52;4.95;;;19.70;85.60;;;;;;4951176;28;20054;-68
2023/10/25 10:45:46;;;;;;;30.38;4.90;;;19.70;84.80;;;;;;4946530;28;20055;-68
2023/10/25 10:48:21;;;;;;;32.65;6.13;;;19.70;84.80;;;;;;4950229;28;20055;-68
2023/10/25 10:50:49;;;;;;;30.35;4.90;;;19.60;84.70;;;;;;4951292;28;20030;-70
2023/10/25 10:53:16;;;;;;;36.28;4.97;;;19.70;84.50;;;;;;4950714;28;20376;-68
2023/10/25 10:55:45;;;;;;;30.23;4.43;;;19.70;84.50;;;;;;4945933;28;20150;-68
2023/10/25 10:58:13;;;;;;;21.95;4.40;;;19.60;84.40;;;;;;4947727;28;20389;-68
2023/10/25 11:00:44;;;;;;;25.02;5.38;;;19.60;84.50;;;;;;4951497;28;20043;-67
2023/10/25 11:03:12;;;;;;;24.30;4.40;;;19.60;84.80;;;;;;4943111;28;20506;-67
2023/10/25 11:05:39;;;;;;;30.60;4.22;;;19.50;84.80;;;;;;4933733;28;20027;-67
2023/10/25 11:08:11;;;;;;;29.00;4.22;;;19.40;84.60;;;;;;4945295;28;20023;-65
2023/10/25 11:10:39;;;;;;;25.38;4.40;;;19.50;84.50;;;;;;4953976;28;20035;-67
2023/10/25 11:13:11;;;;;;;31.25;5.15;;;19.40;84.60;;;;;;4955636;28;20034;-67
2023/10/25 11:15:38;;;;;;;22.55;5.35;;;19.30;84.50;;;;;;4945566;28;20046;-66
2023/10/25 11:18:10;;;;;;;25.63;3.35;;;19.20;84.70;;;;;;4950680;28;20039;-68
2023/10/25 11:20:38;;;;;;;25.70;4.05;;;19.00;84.70;;;;;;4952725;28;20523;-67
2023/10/25 11:23:05;;;;;;;24.98;4.07;;;19.00;84.60;;;;;;4955097;28;20031;-66
2023/10/25 11:25:33;;;;;;;36.30;5.20;;;18.90;84.60;;;;;;4952175;28;20027;-66
2023/10/25 11:28:00;;;;;;;26.20;3.97;;;18.90;84.70;;;;;;4950179;28;20507;-67
2023/10/25 11:30:30;;;;;;;27.77;4.47;;;18.90;84.90;;;;;;4954756;28;20480;-68
2023/10/25 11:32:57;;;;;;;21.88;3.60;;;18.90;84.50;;;;;;4955101;28;20059;-67
2023/10/25 11:35:28;;;;;;;27.35;4.50;;;18.90;84.20;;;;;;4951063;28;20059;-67
2023/10/25 11:37:58;;;;;;;34.22;4.22;;;18.80;84.50;;;;;;4952961;28;20118;-67
2023/10/25 11:40:40;;;;;;;25.33;4.90;;;18.90;84.50;;;;;;4951874;28;20050;-65
2023/10/25 11:43:08;;;;;;;23.17;3.85;;;18.80;84.50;;;;;;4954917;28;20401;-67
2023/10/25 11:45:37;;;;;;;24.08;3.97;;;18.70;84.80;;;;;;4951142;28;20058;-67
2023/10/25 11:48:06;;;;;;;25.02;3.95;;;18.70;84.90;;;;;;4948729;28;20495;-65
2023/10/25 11:50:33;;;;;;;19.38;4.00;;;18.80;84.60;;;;;;4950410;28;20126;-68
2023/10/25 11:53:01;;;;;;;27.55;3.88;;;18.70;84.70;;;;;;4951019;28;20027;-66
2023/10/25 11:55:28;;;;;;;27.83;4.43;;;18.80;84.70;;;;;;4947000;28;20066;-66
2023/10/25 11:57:57;;;;;;;20.25;3.63;;;18.60;85.00;;;;;;4953737;28;20046;-67
2023/10/25 12:00:24;;;;;;;23.02;3.28;;;18.60;85.30;;;;;;4952865;28;20046;-65
2023/10/25 12:02:51;;;;;;;27.58;4.55;;;18.80;84.70;;;;;;4946620;28;20388;-66
2023/10/25 12:05:19;;;;;;;26.52;4.25;;;18.80;84.50;;;;;;4944368;28;20039;-65
2023/10/25 12:07:49;;;;;;;21.50;4.25;;;18.70;85.00;;;;;;4951357;28;20106;-67
2023/10/25 12:10:16;;;;;;;25.45;3.75;;;18.60;85.30;;;;;;4952750;28;20032;-65
2023/10/25 12:12:43;;;;;;;28.05;3.95;;;18.60;85.60;;;;;;4953893;28;20066;-65
2023/10/25 12:15:11;;;;;;;27.58;4.35;;;18.60;85.40;;;;;;4952530;28;20034;-67
2023/10/25 12:17:38;;;;;;;25.60;4.40;;;18.40;85.60;;;;;;4949614;28;20027;-65
2023/10/25 12:20:06;;;;;;;23.75;4.65;;;18.30;85.90;;;;;;4953390;28;20491;-67
2023/10/25 12:22:34;;;;;;;32.28;4.28;;;18.20;86.10;;;;;;4951004;28;20122;-66
2023/10/25 12:25:02;;;;;;;29.10;4.00;;;18.20;86.40;;;;;;4949548;28;20027;-66
2023/10/25 12:27:29;;;;;;;35.15;4.35;;;18.10;86.50;;;;;;4952693;28;20411;-67
2023/10/25 12:29:56;;;;;;;23.95;4.22;;;18.10;86.30;;;;;;4951823;28;20023;-67
2023/10/25 12:32:23;;;;;;;23.50;4.55;;;18.00;86.60;;;;;;4950791;28;20031;-66
2023/10/25 12:34:51;;;;;;;31.08;4.07;;;18.00;87.00;;;;;;4950003;28;20047;-67
2023/10/25 12:37:18;;;;;;;29.88;5.10;;;18.00;86.90;;;;;;4951664;28;20055;-67
2023/10/25 12:39:46;;;;;;;24.52;3.45;;;17.90;87.20;;;;;;4947647;28;20031;-66
2023/10/25 12:42:13;;;;;;;31.77;4.25;;;18.00;87.10;;;;;;4932364;28;20035;-66
2023/10/25 12:44:41;;;;;;;31.00;3.75;;;18.00;87.40;;;;;;4955130;28;20539;-67
2023/10/25 12:47:09;;;;;;;23.85;4.05;;;17.90;87.50;;;;;;4947615;28;20042;-67